Time;durP1;ratioP1;P1;durP2;ratioP2;P2;SDS_P1;SDS_P2;PMS_P1;PMS_P2;Temp;Humidity;BMP_temperature;BMP_pressure;BME280_temperature;BME280_humidity;BME280_pressure;Samples;Min_cycle;Max_cycle;Signal;HPM_P1;HPM_P2
2023/02/12 00:02:21;;;;;;;;;;;;;;;12.24;nan;103300.81;4980830;28;20343;-86
2023/02/12 00:04:46;;;;;;;;;;;;;;;12.16;nan;103307.16;4982734;28;19924;-87
2023/02/12 00:07:12;;;;;;;;;;;;;;;12.07;nan;103317.25;4981564;28;19960;-86
2023/02/12 00:09:38;;;;;;;;;;;;;;;11.96;nan;103309.69;4983582;28;20015;-87
2023/02/12 00:12:03;;;;;;;;;;;;;;;11.86;nan;103314.59;4983369;28;19921;-87
2023/02/12 00:14:28;;;;;;;;;;;;;;;11.77;nan;103315.72;4977067;28;19932;-86
2023/02/12 00:16:54;;;;;;;;;;;;;;;11.69;nan;103324.75;4981797;28;19922;-87
2023/02/12 00:19:19;;;;;;;;;;;;;;;11.61;nan;103316.81;4980461;28;19921;-87
2023/02/12 00:21:45;;;;;;;;;;;;;;;11.53;nan;103319.63;4985683;28;20214;-87
2023/02/12 00:24:10;;;;;;;;;;;;;;;11.45;nan;103323.25;4981967;28;19924;-86
2023/02/12 00:26:36;;;;;;;;;;;;;;;11.42;nan;103326.31;4968008;28;19922;-87
2023/02/12 00:29:01;;;;;;;;;;;;;;;11.37;nan;103330.63;4982145;28;19929;-87
2023/02/12 00:31:27;;;;;;;;;;;;;;;11.32;nan;103331.19;4986267;28;19930;-86
2023/02/12 00:33:53;;;;;;;;;;;;;;;11.30;nan;103327.00;4970458;28;19929;-87
2023/02/12 00:36:20;;;;;;;;;;;;;;;11.23;nan;103328.81;4980915;28;19972;-87
2023/02/12 00:38:45;;;;;;;;;;;;;;;11.19;nan;103333.72;4980596;28;19926;-87
2023/02/12 00:41:11;;;;;;;;;;;;;;;11.14;nan;103328.94;4979717;28;20277;-86
2023/02/12 00:43:37;;;;;;;;;;;;;;;11.08;nan;103323.47;4973252;28;19953;-87
2023/02/12 00:46:02;;;;;;;;;;;;;;;11.03;nan;103328.56;4980320;28;20384;-87
2023/02/12 00:48:28;;;;;;;;;;;;;;;10.96;nan;103333.88;4984729;28;20096;-86
2023/02/12 00:51:01;;;;;;;;;;;;;;;10.91;nan;103330.91;4981945;28;19917;-87
2023/02/12 00:53:26;;;;;;;;;;;;;;;10.87;nan;103343.84;4977480;28;19924;-87
2023/02/12 00:55:52;;;;;;;;;;;;;;;10.83;nan;103341.75;4983590;28;19981;-87
2023/02/12 00:58:17;;;;;;;;;;;;;;;10.75;nan;103339.97;4983896;28;19937;-87
2023/02/12 01:00:43;;;;;;;;;;;;;;;10.71;nan;103345.91;4980756;28;19997;-86
2023/02/12 01:03:08;;;;;;;;;;;;;;;10.66;nan;103345.63;4982080;28;19922;-87
2023/02/12 01:05:34;;;;;;;;;;;;;;;10.60;nan;103349.91;4987057;28;19918;-86
2023/02/12 01:07:59;;;;;;;;;;;;;;;10.58;nan;103352.72;4978085;28;19926;-87
2023/02/12 01:10:25;;;;;;;;;;;;;;;10.58;nan;103357.25;4983000;28;19925;-86
2023/02/12 01:12:50;;;;;;;;;;;;;;;10.55;nan;103361.16;4985868;28;19965;-87
2023/02/12 01:15:16;;;;;;;;;;;;;;;10.53;nan;103354.31;4982198;28;19929;-87
2023/02/12 01:17:42;;;;;;;;;;;;;;;10.48;nan;103365.59;4982295;28;19980;-87
2023/02/12 01:20:08;;;;;;;;;;;;;;;10.45;nan;103376.69;4983247;28;20468;-87
2023/02/12 01:22:34;;;;;;;;;;;;;;;10.43;nan;103372.53;4983179;28;20239;-86
2023/02/12 01:24:59;;;;;;;;;;;;;;;10.41;nan;103377.22;4979524;28;21358;-87
2023/02/12 01:27:25;;;;;;;;;;;;;;;10.41;nan;103379.88;4981167;28;19922;-87
2023/02/12 01:29:50;;;;;;;;;;;;;;;10.40;nan;103380.91;4984944;28;19961;-86
2023/02/12 01:32:16;;;;;;;;;;;;;;;10.41;nan;103385.25;4982480;28;19979;-87
2023/02/12 01:34:41;;;;;;;;;;;;;;;10.44;nan;103384.91;4981547;28;20281;-87
2023/02/12 01:37:06;;;;;;;;;;;;;;;10.49;nan;103387.88;4980454;28;19960;-87
2023/02/12 01:39:32;;;;;;;;;;;;;;;10.55;nan;103389.81;4983441;28;20005;-86
2023/02/12 01:41:57;;;;;;;;;;;;;;;10.63;nan;103391.59;4982065;28;20375;-87
2023/02/12 01:44:24;;;;;;;;;;;;;;;10.70;nan;103393.34;4983612;28;19932;-87
2023/02/12 01:47:01;;;;;;;;;;;;;;;10.78;nan;103403.16;4981626;28;19917;-87
2023/02/12 01:49:37;;;;;;;;;;;;;;;10.85;nan;103404.91;4983028;28;19943;-87
2023/02/12 01:52:19;;;;;;;;;;;;;;;10.94;nan;103408.31;4982898;28;19937;-87
2023/02/12 01:54:44;;;;;;;;;;;;;;;11.02;nan;103413.59;4983273;28;19921;-86
2023/02/12 01:57:11;;;;;;;;;;;;;;;11.10;nan;103416.16;4985142;28;20372;-87
2023/02/12 01:59:37;;;;;;;;;;;;;;;11.19;nan;103414.22;4989012;28;19926;-87
2023/02/12 02:02:03;;;;;;;;;;;;;;;11.26;nan;103412.44;4988088;28;19922;-87
2023/02/12 02:04:32;;;;;;;;;;;;;;;11.34;nan;103412.34;4987856;28;19984;-87
2023/02/12 02:06:58;;;;;;;;;;;;;;;11.39;nan;103409.09;4990655;28;20451;-87
2023/02/12 02:09:24;;;;;;;;;;;;;;;11.44;nan;103406.66;4984134;28;20543;-87
2023/02/12 02:14:33;;;;;;;;;;;;;;;11.50;nan;103403.25;4991106;28;19940;-87
2023/02/12 02:17:17;;;;;;;;;;;;;;;11.54;nan;103409.06;4989456;28;19922;-87
2023/02/12 02:19:48;;;;;;;;;;;;;;;11.53;nan;103408.22;4988064;28;19921;-87
2023/02/12 02:22:21;;;;;;;;;;;;;;;11.50;nan;103406.75;4987711;28;20001;-87
2023/02/12 02:25:05;;;;;;;;;;;;;;;11.47;nan;103407.13;4972777;28;20094;-87
2023/02/12 02:27:49;;;;;;;;;;;;;;;11.44;nan;103412.03;4997842;28;19918;-88
2023/02/12 02:30:39;;;;;;;;;;;;;;;11.41;nan;103412.41;5009033;28;20008;-87
2023/02/12 02:33:10;;;;;;;;;;;;;;;11.38;nan;103408.25;5011225;28;19949;-87
2023/02/12 02:35:40;;;;;;;;;;;;;;;11.39;nan;103411.78;5013556;28;19997;-87
2023/02/12 02:38:31;;;;;;;;;;;;;;;11.42;nan;103414.91;5013006;28;19917;-88
2023/02/12 02:41:06;;;;;;;;;;;;;;;11.44;nan;103412.88;4995489;28;19948;-87
2023/02/12 02:43:37;;;;;;;;;;;;;;;11.46;nan;103412.69;5010366;28;19918;-87
2023/02/12 02:46:21;;;;;;;;;;;;;;;11.47;nan;103417.03;5014010;28;19930;-87
2023/02/12 02:48:50;;;;;;;;;;;;;;;11.45;nan;103417.22;5013313;28;19929;-87
2023/02/12 02:51:20;;;;;;;;;;;;;;;11.45;nan;103419.06;4995422;28;19922;-87
2023/02/12 02:53:51;;;;;;;;;;;;;;;11.49;nan;103418.53;5010360;28;19922;-87
2023/02/12 02:56:19;;;;;;;;;;;;;;;11.54;nan;103422.50;5014150;28;19926;-88
2023/02/12 02:58:48;;;;;;;;;;;;;;;11.57;nan;103425.63;5013953;28;19941;-87
2023/02/12 03:01:19;;;;;;;;;;;;;;;11.58;nan;103419.22;5012665;28;19922;-88
2023/02/12 03:04:11;;;;;;;;;;;;;;;11.60;nan;103427.09;5009541;28;19932;-88
2023/02/12 03:06:45;;;;;;;;;;;;;;;11.61;nan;103434.97;5009385;28;19961;-87
2023/02/12 03:09:16;;;;;;;;;;;;;;;11.59;nan;103431.63;4994633;28;19932;-87
2023/02/12 03:11:42;;;;;;;;;;;;;;;11.60;nan;103432.47;4990529;28;19973;-87
2023/02/12 03:14:22;;;;;;;;;;;;;;;11.62;nan;103439.31;4990804;28;20403;-87
2023/02/12 03:16:57;;;;;;;;;;;;;;;11.62;nan;103438.47;4986448;28;19922;-87
2023/02/12 03:19:24;;;;;;;;;;;;;;;11.60;nan;103437.84;4986263;28;20944;-87
2023/02/12 03:21:54;;;;;;;;;;;;;;;11.59;nan;103444.22;4984857;28;20031;-87
2023/02/12 03:24:23;;;;;;;;;;;;;;;11.60;nan;103453.94;4988514;28;19968;-87
2023/02/12 03:26:51;;;;;;;;;;;;;;;11.58;nan;103447.94;4986048;28;19917;-87
2023/02/12 03:29:16;;;;;;;;;;;;;;;11.56;nan;103448.13;4986954;28;19932;-87
2023/02/12 03:31:42;;;;;;;;;;;;;;;11.55;nan;103446.47;4985906;28;20392;-87
2023/02/12 03:34:07;;;;;;;;;;;;;;;11.54;nan;103450.16;4989001;28;19997;-87
2023/02/12 03:36:40;;;;;;;;;;;;;;;11.54;nan;103450.16;5004335;23;19934;-89
2023/02/12 03:39:14;;;;;;;;;;;;;;;11.53;nan;103451.19;4986803;28;19979;-88
2023/02/12 03:41:42;;;;;;;;;;;;;;;11.56;nan;103460.72;4988027;28;20411;-85
2023/02/12 03:44:12;;;;;;;;;;;;;;;11.55;nan;103462.56;4982943;28;20109;-85
2023/02/12 03:46:43;;;;;;;;;;;;;;;11.55;nan;103459.06;4988520;28;19921;-86
2023/02/12 03:49:27;;;;;;;;;;;;;;;11.56;nan;103468.78;4985765;28;19936;-85
2023/02/12 03:51:52;;;;;;;;;;;;;;;11.54;nan;103468.97;4983033;28;20672;-86
2023/02/12 03:54:20;;;;;;;;;;;;;;;11.57;nan;103465.91;4979040;28;19948;-85
2023/02/12 03:56:51;;;;;;;;;;;;;;;11.60;nan;103468.19;4977888;28;19957;-85
2023/02/12 03:59:23;;;;;;;;;;;;;;;11.61;nan;103472.56;4979193;28;20344;-89
2023/02/12 04:01:50;;;;;;;;;;;;;;;11.59;nan;103469.22;4978681;28;19990;-86
2023/02/12 04:04:16;;;;;;;;;;;;;;;11.58;nan;103472.94;4979594;28;19932;-87
2023/02/12 04:06:42;;;;;;;;;;;;;;;11.57;nan;103478.50;4978437;28;20473;-88
2023/02/12 04:09:08;;;;;;;;;;;;;;;11.55;nan;103483.22;4979791;28;19951;-85
2023/02/12 04:11:49;;;;;;;;;;;;;;;11.55;nan;103486.75;4982714;28;19945;-87
2023/02/12 04:14:28;;;;;;;;;;;;;;;11.54;nan;103486.94;4980851;28;19986;-85
2023/02/12 04:16:58;;;;;;;;;;;;;;;11.56;nan;103488.41;4982686;28;19936;-86
2023/02/12 04:19:32;;;;;;;;;;;;;;;11.58;nan;103489.03;4982376;28;19918;-85
2023/02/12 04:22:11;;;;;;;;;;;;;;;11.65;nan;103491.81;4982978;28;20004;-86
2023/02/12 04:24:49;;;;;;;;;;;;;;;11.72;nan;103484.66;4984652;28;20467;-85
2023/02/12 04:27:21;;;;;;;;;;;;;;;11.80;nan;103487.25;4983713;28;20466;-85
2023/02/12 04:29:47;;;;;;;;;;;;;;;11.88;nan;103489.03;4980292;28;20379;-85
2023/02/12 04:32:35;;;;;;;;;;;;;;;11.95;nan;103496.13;4983650;28;19922;-87
2023/02/12 04:35:00;;;;;;;;;;;;;;;12.05;nan;103498.50;4980784;28;20109;-87
2023/02/12 04:37:31;;;;;;;;;;;;;;;12.10;nan;103498.75;4986507;28;20375;-87
2023/02/12 04:39:58;;;;;;;;;;;;;;;12.16;nan;103495.28;4981112;28;20387;-85
2023/02/12 04:42:23;;;;;;;;;;;;;;;12.20;nan;103496.56;4985718;28;19953;-85
2023/02/12 04:44:48;;;;;;;;;;;;;;;12.19;nan;103502.97;4986251;28;20413;-85
2023/02/12 04:47:15;;;;;;;;;;;;;;;12.19;nan;103502.97;4986241;28;20586;-85
2023/02/12 04:49:40;;;;;;;;;;;;;;;12.20;nan;103506.50;4982903;28;19930;-88
2023/02/12 04:52:06;;;;;;;;;;;;;;;12.21;nan;103513.53;4984039;28;19970;-85
2023/02/12 04:54:32;;;;;;;;;;;;;;;12.23;nan;103515.03;4985906;28;20028;-89
2023/02/12 04:56:57;;;;;;;;;;;;;;;12.27;nan;103524.38;4985216;28;19921;-86
2023/02/12 04:59:23;;;;;;;;;;;;;;;12.32;nan;103518.41;4985605;28;19926;-87
2023/02/12 05:01:48;;;;;;;;;;;;;;;12.36;nan;103523.19;4980078;28;20407;-87
2023/02/12 05:04:14;;;;;;;;;;;;;;;12.40;nan;103531.72;4981829;28;19918;-85
2023/02/12 05:06:40;;;;;;;;;;;;;;;12.42;nan;103539.59;4983836;28;20174;-86
2023/02/12 05:09:06;;;;;;;;;;;;;;;12.43;nan;103535.88;4983442;28;19955;-87
2023/02/12 05:11:32;;;;;;;;;;;;;;;12.45;nan;103534.66;4983910;28;20052;-86
2023/02/12 05:13:58;;;;;;;;;;;;;;;12.48;nan;103536.97;4981845;28;20048;-85
2023/02/12 05:16:23;;;;;;;;;;;;;;;12.52;nan;103542.78;4980290;28;20342;-85
2023/02/12 05:18:49;;;;;;;;;;;;;;;12.53;nan;103539.91;4980973;28;19921;-86
2023/02/12 05:21:14;;;;;;;;;;;;;;;12.55;nan;103539.72;4981882;28;20213;-85
2023/02/12 05:23:40;;;;;;;;;;;;;;;12.58;nan;103536.66;4979240;28;20479;-86
2023/02/12 05:26:13;;;;;;;;;;;;;;;12.59;nan;103541.00;4982839;28;19921;-86
2023/02/12 05:28:39;;;;;;;;;;;;;;;12.57;nan;103538.50;4982802;28;20355;-86
2023/02/12 05:31:05;;;;;;;;;;;;;;;12.57;nan;103545.75;4981520;28;20021;-87
2023/02/12 05:33:31;;;;;;;;;;;;;;;12.56;nan;103541.38;4983763;28;20382;-86
2023/02/12 05:36:04;;;;;;;;;;;;;;;12.55;nan;103539.72;4980960;28;19926;-85
2023/02/12 05:38:29;;;;;;;;;;;;;;;12.59;nan;103546.38;4982987;28;19918;-86
2023/02/12 05:40:59;;;;;;;;;;;;;;;12.61;nan;103552.41;4982747;28;20385;-86
2023/02/12 05:43:25;;;;;;;;;;;;;;;12.63;nan;103555.72;4983660;28;19925;-85
2023/02/12 05:45:50;;;;;;;;;;;;;;;12.66;nan;103552.66;4965270;28;19917;-86
2023/02/12 05:48:15;;;;;;;;;;;;;;;12.68;nan;103550.59;4976277;28;19926;-87
2023/02/12 05:50:41;;;;;;;;;;;;;;;12.70;nan;103543.16;4963559;28;19918;-87
2023/02/12 05:53:06;;;;;;;;;;;;;;;12.71;nan;103550.19;4985044;28;19955;-86
2023/02/12 05:55:31;;;;;;;;;;;;;;;12.70;nan;103548.53;4983862;28;20008;-86
2023/02/12 05:57:57;;;;;;;;;;;;;;;12.66;nan;103550.78;4979725;28;19932;-86
2023/02/12 06:00:22;;;;;;;;;;;;;;;12.61;nan;103561.31;4982168;28;20009;-86
2023/02/12 06:02:47;;;;;;;;;;;;;;;12.57;nan;103551.97;4983699;28;19925;-86
2023/02/12 06:05:15;;;;;;;;;;;;;;;12.55;nan;103559.38;4980589;28;19958;-86
2023/02/12 06:07:41;;;;;;;;;;;;;;;12.53;nan;103560.59;4980486;28;19921;-86
2023/02/12 06:10:06;;;;;;;;;;;;;;;12.53;nan;103560.59;4982658;28;20187;-87
2023/02/12 06:12:32;;;;;;;;;;;;;;;12.54;nan;103567.63;4984660;28;20272;-85
2023/02/12 06:14:57;;;;;;;;;;;;;;;12.56;nan;103562.88;4982208;28;19929;-86
2023/02/12 06:17:22;;;;;;;;;;;;;;;12.57;nan;103565.41;4983820;28;19922;-86
2023/02/12 06:19:50;;;;;;;;;;;;;;;12.59;nan;103563.34;4982092;28;20445;-86
2023/02/12 06:22:15;;;;;;;;;;;;;;;12.62;nan;103562.97;4984773;28;20096;-89
2023/02/12 06:24:41;;;;;;;;;;;;;;;12.66;nan;103568.78;4980357;28;19929;-86
2023/02/12 06:27:06;;;;;;;;;;;;;;;12.67;nan;103563.22;4984152;28;19926;-87
2023/02/12 06:29:31;;;;;;;;;;;;;;;12.70;nan;103570.06;4982241;28;19965;-86
2023/02/12 06:31:57;;;;;;;;;;;;;;;12.70;nan;103570.06;4979844;28;19949;-86
2023/02/12 06:34:22;;;;;;;;;;;;;;;12.71;nan;103577.09;4979655;28;19922;-85
2023/02/12 06:36:47;;;;;;;;;;;;;;;12.73;nan;103583.13;4981590;28;19928;-86
2023/02/12 06:39:14;;;;;;;;;;;;;;;12.74;nan;103587.47;4985233;28;19996;-85
2023/02/12 06:41:39;;;;;;;;;;;;;;;12.75;nan;103589.16;4981532;28;20664;-85
2023/02/12 06:44:05;;;;;;;;;;;;;;;12.78;nan;103587.94;4980590;28;19932;-86
2023/02/12 06:46:30;;;;;;;;;;;;;;;12.82;nan;103597.28;4985615;28;19918;-86
2023/02/12 06:48:57;;;;;;;;;;;;;;;12.85;nan;103602.28;4987568;28;20280;-86
2023/02/12 06:51:22;;;;;;;;;;;;;;;12.87;nan;103606.44;4986622;28;19929;-85
2023/02/12 06:53:48;;;;;;;;;;;;;;;12.88;nan;103608.09;4984202;28;19926;-86
2023/02/12 06:56:14;;;;;;;;;;;;;;;12.93;nan;103616.44;4982694;28;20010;-85
2023/02/12 06:58:40;;;;;;;;;;;;;;;12.95;nan;103613.56;4985422;28;19917;-87
2023/02/12 07:01:11;;;;;;;;;;;;;;;12.97;nan;103614.19;4986325;28;20261;-86
2023/02/12 07:03:38;;;;;;;;;;;;;;;12.99;nan;103617.50;4984383;28;19929;-86
2023/02/12 07:06:03;;;;;;;;;;;;;;;13.00;nan;103617.31;4982290;28;20360;-88
2023/02/12 07:08:29;;;;;;;;;;;;;;;12.98;nan;103616.69;4984578;28;19964;-89
2023/02/12 07:10:54;;;;;;;;;;;;;;;13.04;nan;103620.44;4985053;28;19925;-86
2023/02/12 07:13:19;;;;;;;;;;;;;;;13.06;nan;103620.25;4985516;28;20192;-85
2023/02/12 07:15:44;;;;;;;;;;;;;;;13.09;nan;103627.94;4966127;28;20146;-87
2023/02/12 07:18:10;;;;;;;;;;;;;;;13.11;nan;103620.50;4983512;28;20174;-85
2023/02/12 07:20:35;;;;;;;;;;;;;;;13.15;nan;103622.63;4985105;28;19926;-87
2023/02/12 07:23:01;;;;;;;;;;;;;;;13.17;nan;103615.16;4983612;28;19928;-86
2023/02/12 07:25:26;;;;;;;;;;;;;;;13.22;nan;103625.38;4986320;28;20354;-86
2023/02/12 07:27:51;;;;;;;;;;;;;;;13.25;nan;103620.44;4983056;28;19925;-89
2023/02/12 07:30:18;;;;;;;;;;;;;;;13.28;nan;103627.28;4986610;28;19922;-86
2023/02/12 07:32:44;;;;;;;;;;;;;;;13.33;nan;103624.84;4984135;28;19922;-86
2023/02/12 07:35:09;;;;;;;;;;;;;;;13.35;nan;103627.34;4985749;28;20204;-86
2023/02/12 07:37:34;;;;;;;;;;;;;;;13.37;nan;103626.13;4981516;28;20497;-89
2023/02/12 07:40:00;;;;;;;;;;;;;;;13.40;nan;103631.09;4984028;28;19921;-85
2023/02/12 07:42:25;;;;;;;;;;;;;;;13.41;nan;103638.16;4985339;28;19918;-88
2023/02/12 07:44:51;;;;;;;;;;;;;;;13.44;nan;103634.22;4983756;28;20009;-87
2023/02/12 07:47:16;;;;;;;;;;;;;;;13.48;nan;103639.03;4984840;28;19925;-87
2023/02/12 07:49:41;;;;;;;;;;;;;;;13.51;nan;103644.03;4984658;28;19922;-89
2023/02/12 07:52:07;;;;;;;;;;;;;;;13.55;nan;103652.53;4985048;28;19932;-89
2023/02/12 07:54:32;;;;;;;;;;;;;;;13.57;nan;103653.19;4984197;28;19928;-86
2023/02/12 07:56:59;;;;;;;;;;;;;;;13.60;nan;103655.47;4982483;28;19928;-86
2023/02/12 07:59:25;;;;;;;;;;;;;;;13.60;nan;103659.00;4982548;28;19918;-86
2023/02/12 08:01:51;;;;;;;;;;;;;;;13.61;nan;103655.28;4980811;28;20334;-86
2023/02/12 08:04:18;;;;;;;;;;;;;;;13.63;nan;103660.47;4983957;28;19964;-86
2023/02/12 08:06:45;;;;;;;;;;;;;;;13.65;nan;103655.72;4985364;28;20016;-88
2023/02/12 08:09:13;;;;;;;;;;;;;;;13.70;nan;103661.34;4981390;28;20429;-86
2023/02/12 08:11:39;;;;;;;;;;;;;;;13.71;nan;103660.31;4979334;28;19928;-86
2023/02/12 08:14:04;;;;;;;;;;;;;;;13.72;nan;103666.53;4985410;28;19917;-87
2023/02/12 08:16:30;;;;;;;;;;;;;;;13.75;nan;103661.59;4983603;28;19977;-86
2023/02/12 08:18:56;;;;;;;;;;;;;;;13.76;nan;103665.94;4982740;28;19925;-86
2023/02/12 08:21:23;;;;;;;;;;;;;;;13.82;nan;103667.00;4985923;28;20210;-86
2023/02/12 08:23:49;;;;;;;;;;;;;;;13.83;nan;103671.38;4982532;28;19953;-86
2023/02/12 08:26:16;;;;;;;;;;;;;;;13.86;nan;103673.69;4984714;28;19918;-86
2023/02/12 08:28:43;;;;;;;;;;;;;;;13.89;nan;103673.28;4983271;28;19917;-86
2023/02/12 08:31:10;;;;;;;;;;;;;;;13.87;nan;103678.88;4981523;28;20414;-86
2023/02/12 08:33:36;;;;;;;;;;;;;;;13.89;nan;103678.66;4969712;28;20186;-89
2023/02/12 08:36:05;;;;;;;;;;;;;;;13.92;nan;103683.66;4983698;28;19925;-86
2023/02/12 08:38:31;;;;;;;;;;;;;;;13.94;nan;103689.69;4980609;28;19924;-86
2023/02/12 08:40:59;;;;;;;;;;;;;;;13.95;nan;103691.34;4986037;28;19925;-86
2023/02/12 08:43:25;;;;;;;;;;;;;;;13.97;nan;103691.13;4961444;28;19948;-86
2023/02/12 08:45:51;;;;;;;;;;;;;;;13.99;nan;103686.38;4977664;28;19969;-87
2023/02/12 08:48:16;;;;;;;;;;;;;;;14.03;nan;103691.19;4977751;28;19928;-88
2023/02/12 08:50:42;;;;;;;;;;;;;;;14.01;nan;103687.88;4982482;28;19917;-87
2023/02/12 08:53:07;;;;;;;;;;;;;;;14.03;nan;103698.44;4982927;28;19976;-86
2023/02/12 08:55:32;;;;;;;;;;;;;;;14.04;nan;103692.84;4980483;28;20498;-87
2023/02/12 08:57:58;;;;;;;;;;;;;;;14.04;nan;103695.56;4979612;28;20154;-87
2023/02/12 09:00:23;;;;;;;;;;;;;;;14.07;nan;103691.63;4978894;28;19922;-86
2023/02/12 09:02:48;;;;;;;;;;;;;;;14.11;nan;103706.34;4980670;28;20003;-86
2023/02/12 09:05:14;;;;;;;;;;;;;;;14.15;nan;103705.75;4983331;28;20277;-86
2023/02/12 09:07:39;;;;;;;;;;;;;;;14.16;nan;103696.63;4980199;28;19922;-89
2023/02/12 09:10:05;;;;;;;;;;;;;;;14.17;nan;103698.28;4979851;28;19922;-85
2023/02/12 09:12:30;;;;;;;;;;;;;;;14.19;nan;103709.72;4984224;28;20024;-88
2023/02/12 09:14:56;;;;;;;;;;;;;;;14.22;nan;103716.59;4978048;28;19957;-87
2023/02/12 09:17:26;;;;;;;;;;;;;;;14.25;nan;103715.34;4980236;28;20401;-86
2023/02/12 09:19:51;;;;;;;;;;;;;;;14.25;nan;103709.97;4976041;28;20537;-86
2023/02/12 09:22:17;;;;;;;;;;;;;;;14.22;nan;103716.59;4976303;28;19922;-87
2023/02/12 09:24:42;;;;;;;;;;;;;;;14.22;nan;103719.28;4984746;28;19925;-88
2023/02/12 09:27:08;;;;;;;;;;;;;;;14.19;nan;103728.59;4984814;28;20577;-86
2023/02/12 09:29:33;;;;;;;;;;;;;;;14.23;nan;103730.91;4964188;28;19922;-86
2023/02/12 09:32:01;;;;;;;;;;;;;;;14.24;nan;103730.69;4985498;28;19949;-87
2023/02/12 09:34:26;;;;;;;;;;;;;;;14.27;nan;103732.16;4977721;28;19921;-87
2023/02/12 09:36:52;;;;;;;;;;;;;;;14.33;nan;103724.09;4993174;23;19937;-87
2023/02/12 09:39:20;;;;;;;;;;;;;;;14.34;nan;103724.91;4969616;28;19936;-88
2023/02/12 09:41:56;;;;;;;;;;;;;;;14.37;nan;103722.69;4972247;28;19933;-87
2023/02/12 09:44:24;;;;;;;;;;;;;;;14.37;nan;103730.78;4969325;28;19973;-88
2023/02/12 09:47:02;;;;;;;;;;;;;;;14.39;nan;103719.78;4960969;28;20012;-87
2023/02/12 09:49:27;;;;;;;;;;;;;;;14.41;nan;103728.50;4976658;28;19984;-87
2023/02/12 09:51:53;;;;;;;;;;;;;;;14.44;nan;103720.84;4980809;28;19949;-87
2023/02/12 09:54:23;;;;;;;;;;;;;;;14.44;nan;103728.13;4980393;28;19985;-88
2023/02/12 09:56:52;;;;;;;;;;;;;;;14.46;nan;103729.56;4977486;28;20012;-87
2023/02/12 09:59:36;;;;;;;;;;;;;;;14.49;nan;103725.63;4994750;28;19953;-88
2023/02/12 10:02:05;;;;;;;;;;;;;;;14.51;nan;103728.97;5004168;28;19918;-87
2023/02/12 10:04:31;;;;;;;;;;;;;;;14.54;nan;103741.22;5008313;28;19933;-88
2023/02/12 10:07:06;;;;;;;;;;;;;;;14.58;nan;103737.94;5004717;28;19937;-88
2023/02/12 10:09:50;;;;;;;;;;;;;;;14.62;nan;103735.66;4994862;28;19913;-88
2023/02/12 10:12:39;;;;;;;;;;;;;;;14.65;nan;103736.09;5002991;28;19926;-88
2023/02/12 10:15:04;;;;;;;;;;;;;;;14.72;nan;103742.34;4992086;28;19937;-88
2023/02/12 10:17:38;;;;;;;;;;;;;;;14.76;nan;103738.19;4996870;28;19921;-87
2023/02/12 10:20:06;;;;;;;;;;;;;;;14.78;nan;103733.44;4976804;28;19922;-87
2023/02/12 10:22:42;;;;;;;;;;;;;;;14.77;nan;103731.78;4984046;28;19953;-88
2023/02/12 10:25:16;;;;;;;;;;;;;;;14.77;nan;103723.66;4982998;28;19926;-88
2023/02/12 10:27:49;;;;;;;;;;;;;;;14.79;nan;103724.28;4982755;28;19968;-88
2023/02/12 10:30:29;;;;;;;;;;;;;;;14.81;nan;103711.41;4960087;28;19927;-87
2023/02/12 10:32:59;;;;;;;;;;;;;;;14.88;nan;103721.38;4981712;28;19933;-88
2023/02/12 10:35:25;;;;;;;;;;;;;;;14.93;nan;103729.72;4979470;28;19929;-87
2023/02/12 10:38:01;;;;;;;;;;;;;;;14.98;nan;103719.13;4981392;28;20446;-88
2023/02/12 10:40:31;;;;;;;;;;;;;;;15.02;nan;103720.38;4981198;28;19925;-88
2023/02/12 10:42:58;;;;;;;;;;;;;;;15.05;nan;103726.19;4983915;28;19925;-87
2023/02/12 10:45:29;;;;;;;;;;;;;;;15.03;nan;103722.03;4978693;28;20059;-88
2023/02/12 10:48:02;;;;;;;;;;;;;;;15.03;nan;103719.34;4976019;28;19922;-88
2023/02/12 10:50:31;;;;;;;;;;;;;;;15.05;nan;103726.19;4977598;28;19926;-88
2023/02/12 10:52:59;;;;;;;;;;;;;;;15.03;nan;103717.47;4980447;28;19918;-87
2023/02/12 10:55:29;;;;;;;;;;;;;;;15.07;nan;103726.00;4978664;28;20496;-87
2023/02/12 10:57:55;;;;;;;;;;;;;;;15.03;nan;103722.03;4980685;28;19918;-88
2023/02/12 11:00:23;;;;;;;;;;;;;;;14.98;nan;103716.44;4979189;28;19944;-89
2023/02/12 11:03:01;;;;;;;;;;;;;;;14.97;nan;103723.72;4979318;28;19929;-88
2023/02/12 11:05:28;;;;;;;;;;;;;;;14.95;nan;103716.84;4979623;28;20310;-88
2023/02/12 11:07:54;;;;;;;;;;;;;;;14.97;nan;103722.88;4976461;28;19932;-87
2023/02/12 11:10:21;;;;;;;;;;;;;;;14.96;nan;103721.22;4979323;28;19926;-87
2023/02/12 11:12:48;;;;;;;;;;;;;;;14.90;nan;103724.72;4977996;28;20380;-88
2023/02/12 11:15:16;;;;;;;;;;;;;;;14.90;nan;103725.56;4978498;28;19925;-87
2023/02/12 11:17:46;;;;;;;;;;;;;;;14.91;nan;103715.59;4981361;28;19921;-88
2023/02/12 11:20:17;;;;;;;;;;;;;;;14.94;nan;103716.03;4974048;28;19929;-88
2023/02/12 11:22:55;;;;;;;;;;;;;;;14.90;nan;103722.00;4977403;28;19917;-88
2023/02/12 11:25:21;;;;;;;;;;;;;;;14.92;nan;103722.66;4982004;28;20644;-88
2023/02/12 11:28:04;;;;;;;;;;;;;;;14.94;nan;103715.19;4981329;28;19921;-88
2023/02/12 11:30:30;;;;;;;;;;;;;;;14.95;nan;103711.47;4977303;28;19933;-88
2023/02/12 11:33:19;;;;;;;;;;;;;;;14.93;nan;103713.53;4976876;28;19967;-88
2023/02/12 11:35:51;;;;;;;;;;;;;;;14.97;nan;103707.50;4967940;28;20041;-88
2023/02/12 11:38:21;;;;;;;;;;;;;;;15.02;nan;103699.63;4980741;28;19921;-88
2023/02/12 11:40:47;;;;;;;;;;;;;;;14.99;nan;103699.19;4979521;28;20001;-88
2023/02/12 11:43:16;;;;;;;;;;;;;;;14.98;nan;103700.25;4976237;28;19946;-87
2023/02/12 11:45:45;;;;;;;;;;;;;;;15.01;nan;103700.66;4979507;28;20065;-88
2023/02/12 11:48:19;;;;;;;;;;;;;;;15.02;nan;103698.78;4981292;28;19977;-87
2023/02/12 11:50:46;;;;;;;;;;;;;;;15.05;nan;103701.06;4979611;28;20402;-88
2023/02/12 11:53:18;;;;;;;;;;;;;;;15.06;nan;103706.25;4975901;28;20180;-88
2023/02/12 11:55:52;;;;;;;;;;;;;;;15.02;nan;103702.31;4978018;28;19937;-88
2023/02/12 11:58:21;;;;;;;;;;;;;;;15.02;nan;103696.91;4979927;28;20011;-88
2023/02/12 12:00:51;;;;;;;;;;;;;;;14.98;nan;103701.06;4981717;28;19921;-88
2023/02/12 12:03:28;;;;;;;;;;;;;;;14.96;nan;103697.75;4978718;28;19925;-88
2023/02/12 12:05:58;;;;;;;;;;;;;;;14.94;nan;103699.00;4974949;28;19930;-87
2023/02/12 12:08:23;;;;;;;;;;;;;;;14.94;nan;103705.22;4976489;28;19929;-88
2023/02/12 12:11:01;;;;;;;;;;;;;;;14.93;nan;103702.72;4975700;28;19925;-88
2023/02/12 12:13:35;;;;;;;;;;;;;;;14.98;nan;103697.53;4977911;28;20044;-88
2023/02/12 12:21:56;;;;;;;;;;;;;;;15.00;nan;103699.00;4977581;28;20008;-88
2023/02/12 12:24:25;;;;;;;;;;;;;;;15.01;nan;103694.44;4978712;28;20392;-88
2023/02/12 12:27:23;;;;;;;;;;;;;;;15.03;nan;103697.75;4973717;28;20306;-88
2023/02/12 12:29:59;;;;;;;;;;;;;;;14.93;nan;103697.34;4958694;28;19928;-88
2023/02/12 12:32:28;;;;;;;;;;;;;;;14.86;nan;103696.47;4979458;28;19917;-88
2023/02/12 12:34:53;;;;;;;;;;;;;;;14.87;nan;103695.44;4967651;28;20003;-88
2023/02/12 12:37:41;;;;;;;;;;;;;;;14.92;nan;103691.09;4979081;28;20062;-88
2023/02/12 12:40:22;;;;;;;;;;;;;;;14.94;nan;103688.19;4974640;28;20059;-88
2023/02/12 12:42:54;;;;;;;;;;;;;;;14.93;nan;103687.38;4974481;28;20371;-88
2023/02/12 12:45:41;;;;;;;;;;;;;;;14.94;nan;103682.78;4978011;28;20403;-87
2023/02/12 12:48:09;;;;;;;;;;;;;;;14.94;nan;103678.22;4978594;28;19926;-88
2023/02/12 12:50:53;;;;;;;;;;;;;;;15.01;nan;103675.53;4977945;28;19921;-88
2023/02/12 12:53:25;;;;;;;;;;;;;;;15.02;nan;103671.78;4963917;28;19941;-88
2023/02/12 12:55:53;;;;;;;;;;;;;;;15.01;nan;103672.81;4978260;28;19929;-88
2023/02/12 12:58:18;;;;;;;;;;;;;;;15.04;nan;103672.41;4980930;28;20351;-87
2023/02/12 13:00:50;;;;;;;;;;;;;;;15.12;nan;103669.53;4978216;28;19928;-88
2023/02/12 13:03:21;;;;;;;;;;;;;;;15.20;nan;103668.47;4975210;28;19922;-88
2023/02/12 13:05:58;;;;;;;;;;;;;;;15.20;nan;103680.09;4975734;28;19925;-88
2023/02/12 13:08:26;;;;;;;;;;;;;;;15.23;nan;103668.88;4979551;28;20063;-87
2023/02/12 13:10:51;;;;;;;;;;;;;;;15.20;nan;103663.91;4978469;28;19922;-88
2023/02/12 13:13:27;;;;;;;;;;;;;;;15.17;nan;103660.78;4976342;28;20411;-87
2023/02/12 13:16:03;;;;;;;;;;;;;;;15.19;nan;103659.53;4976340;28;19933;-88